createdAt,value
2022-10-28T00:03:26.577Z,101456.59
2022-10-28T00:08:27.996Z,101445.59
2022-10-28T00:13:29.303Z,101437.72
2022-10-28T00:18:30.654Z,101441.78
2022-10-28T00:23:31.967Z,101433.91
2022-10-28T00:28:33.337Z,101426.47
2022-10-28T00:33:35.004Z,101426.66
2022-10-28T00:38:36.334Z,101427.34
2022-10-28T00:43:39.511Z,101416.47
2022-10-28T00:48:42.378Z,101432.53
2022-10-28T00:53:45.259Z,101455.84
2022-10-28T00:58:48.061Z,101452.97
2022-10-28T01:03:49.388Z,101438.81
2022-10-28T01:08:50.705Z,101443.34
2022-10-28T01:13:51.987Z,101436.94
2022-10-28T01:19:14.322Z,101421.75
2022-10-28T01:24:19.532Z,101418.34
2022-10-28T01:29:33.020Z,101409.69
2022-10-28T01:34:56.516Z,101414.56
2022-10-28T01:40:21.639Z,101412.28
2022-10-28T01:45:26.790Z,101408.38
2022-10-28T01:50:48.398Z,101407.00
2022-10-28T01:55:51.676Z,101391.31
2022-10-28T02:00:53.559Z,101397.03
2022-10-28T02:05:56.612Z,101386.00
2022-10-28T02:11:00.739Z,101374.25
2022-10-28T02:16:17.332Z,101360.19
2022-10-28T02:21:25.023Z,101352.97
2022-10-28T02:26:41.502Z,101349.91
2022-10-28T02:31:49.443Z,101359.75
2022-10-28T02:36:52.854Z,101355.66
2022-10-28T02:42:05.915Z,101347.19
2022-10-28T02:47:10.021Z,101341.66
2022-10-28T02:52:11.786Z,101352.56
2022-10-28T02:57:15.404Z,101400.47
2022-10-28T03:02:16.764Z,101383.94
2022-10-28T03:07:18.140Z,101375.97
2022-10-28T03:12:19.517Z,101366.88
2022-10-28T03:17:20.866Z,101373.81
2022-10-28T03:22:22.209Z,101373.50
2022-10-28T03:27:23.534Z,101371.56
2022-10-28T03:32:24.841Z,101365.69
2022-10-28T03:37:26.212Z,101361.81
2022-10-28T03:42:27.522Z,101351.06
2022-10-28T03:47:28.829Z,101344.06
2022-10-28T03:52:30.210Z,101332.00
2022-10-28T03:57:31.946Z,101324.38
2022-10-28T04:02:33.310Z,101321.16
2022-10-28T04:07:34.789Z,101311.03
2022-10-28T04:12:36.214Z,101302.81
2022-10-28T04:17:37.562Z,101304.66
2022-10-28T04:22:38.879Z,101305.22
2022-10-28T04:27:40.215Z,101310.28
2022-10-28T04:32:42.022Z,101310.47
2022-10-28T04:37:43.333Z,101313.97
2022-10-28T04:42:44.642Z,101320.66
2022-10-28T04:47:45.943Z,101312.41
2022-10-28T04:52:47.342Z,101313.81
2022-10-28T04:57:55.686Z,101323.75
2022-10-28T05:02:57.303Z,101332.66
2022-10-28T05:07:59.126Z,101337.94
2022-10-28T05:13:00.425Z,101328.03
2022-10-28T05:18:01.742Z,101337.19
2022-10-28T05:23:03.092Z,101343.25
2022-10-28T05:28:05.196Z,101320.16
2022-10-28T05:33:06.580Z,101319.56
2022-10-28T05:38:08.103Z,101318.94
2022-10-28T05:43:09.615Z,101330.91
2022-10-28T05:48:10.910Z,101321.31
2022-10-28T05:53:12.247Z,101332.56
2022-10-28T05:58:13.632Z,101326.28
2022-10-28T06:03:14.976Z,101330.81
2022-10-28T06:08:16.330Z,101322.44
2022-10-28T06:13:16.116Z,101325.34
2022-10-28T06:18:18.984Z,101324.22
2022-10-28T06:23:20.791Z,101342.38
2022-10-28T06:28:22.220Z,101350.06
2022-10-28T06:33:25.299Z,101349.44
2022-10-28T06:38:27.378Z,101353.16
2022-10-28T06:43:28.718Z,101359.47
2022-10-28T06:48:31.971Z,101363.31
2022-10-28T06:53:33.337Z,101364.75
2022-10-28T06:58:34.857Z,101366.56
2022-10-28T07:03:36.291Z,101368.38
2022-10-28T07:08:37.676Z,101367.94
2022-10-28T07:13:39.028Z,101380.91
2022-10-28T07:18:40.340Z,101382.53
2022-10-28T07:23:41.662Z,101382.13
2022-10-28T07:28:43.101Z,101393.44
2022-10-28T07:33:44.450Z,101386.72
2022-10-28T07:38:48.665Z,101394.97
2022-10-28T07:43:50.263Z,101393.78
2022-10-28T07:48:51.590Z,101396.97
2022-10-28T07:53:53.183Z,101401.84
2022-10-28T07:58:54.547Z,101401.66
2022-10-28T08:03:56.975Z,101401.34
2022-10-28T08:08:58.318Z,101404.06
2022-10-28T08:13:59.608Z,101396.16
2022-10-28T08:19:02.920Z,101408.22
2022-10-28T08:24:08.183Z,101405.44
2022-10-28T08:29:10.291Z,101396.03
2022-10-28T08:34:11.669Z,101396.81
2022-10-28T08:39:13.024Z,101380.25
2022-10-28T08:44:30.825Z,101383.56
2022-10-28T08:49:33.938Z,101382.25
2022-10-28T08:54:55.243Z,101386.41
2022-10-28T08:59:56.878Z,101376.72
2022-10-28T09:05:02.295Z,101365.06
2022-10-28T09:10:05.022Z,101368.28
2022-10-28T09:15:25.037Z,101364.63
2022-10-28T09:20:47.062Z,101381.31
2022-10-28T09:25:51.360Z,101381.00
2022-10-28T09:31:02.446Z,101370.69
2022-10-28T09:36:05.480Z,101370.53
2022-10-28T09:41:31.897Z,101376.22
2022-10-28T09:46:37.025Z,101368.59
2022-10-28T09:51:44.947Z,101371.03
2022-10-28T09:56:46.285Z,101376.63
2022-10-28T10:01:48.059Z,101367.78
2022-10-28T10:06:51.405Z,101373.59
2022-10-28T10:11:55.197Z,101365.13
2022-10-28T10:17:02.655Z,101371.03
2022-10-28T10:22:03.979Z,101372.34
2022-10-28T10:27:11.091Z,101361.44
2022-10-28T10:32:18.072Z,101353.81
2022-10-28T10:37:21.171Z,101353.50
2022-10-28T10:42:22.543Z,101348.13
2022-10-28T10:47:23.857Z,101343.09
2022-10-28T10:52:26.322Z,101344.81
2022-10-28T10:57:28.216Z,101340.19
2022-10-28T11:02:39.448Z,101344.19
2022-10-28T11:07:47.781Z,101337.88
2022-10-28T11:12:54.296Z,101323.81
2022-10-28T11:18:16.858Z,101322.84
2022-10-28T11:23:27.678Z,101313.56
2022-10-28T11:28:38.792Z,101305.50
2022-10-28T11:33:43.178Z,101304.81
2022-10-28T11:39:05.797Z,101298.41
2022-10-28T11:44:33.610Z,101291.41
2022-10-28T11:49:59.046Z,101281.69
2022-10-28T11:55:14.310Z,101272.06
2022-10-28T12:00:35.727Z,101281.00
2022-10-28T12:05:37.004Z,101284.72
2022-10-28T12:10:55.201Z,101270.47
2022-10-28T12:16:07.598Z,101267.25
2022-10-28T12:21:15.725Z,101258.38
2022-10-28T12:26:18.618Z,101236.97
2022-10-28T12:31:22.931Z,101251.91
2022-10-28T12:36:32.147Z,101242.75
2022-10-28T12:41:53.117Z,101246.97
2022-10-28T12:47:00.466Z,101248.59
2022-10-28T12:52:05.324Z,101242.84
2022-10-28T12:57:11.917Z,101241.19
2022-10-28T13:02:26.358Z,101239.19
2022-10-28T13:07:47.707Z,101241.59
2022-10-28T13:13:09.326Z,101249.56
2022-10-28T13:18:19.609Z,101246.53
2022-10-28T13:23:27.651Z,101246.66
2022-10-28T13:28:36.547Z,101249.44
2022-10-28T13:33:39.025Z,101250.38
2022-10-28T13:38:40.500Z,101243.16
2022-10-28T13:43:50.879Z,101248.25
2022-10-28T13:48:52.231Z,101245.56
2022-10-28T13:53:56.667Z,101246.91
2022-10-28T13:59:18.248Z,101253.56
2022-10-28T14:04:22.539Z,101241.53
2022-10-28T14:09:27.265Z,101246.13
2022-10-28T14:14:28.973Z,101253.50
2022-10-28T14:19:30.374Z,101259.91
2022-10-28T14:24:42.252Z,101257.00
2022-10-28T14:29:48.447Z,101255.13
2022-10-28T14:34:49.965Z,101256.19
2022-10-28T14:40:04.108Z,101262.84
2022-10-28T14:45:26.583Z,101263.59
2022-10-28T14:50:41.238Z,101261.94
2022-10-28T14:55:45.848Z,101272.59
2022-10-28T15:00:55.996Z,101267.97
2022-10-28T15:06:01.343Z,101275.88
2022-10-28T15:11:02.676Z,101273.69
2022-10-28T15:16:04.860Z,101277.50
2022-10-28T15:21:10.794Z,101284.88
2022-10-28T15:26:12.131Z,101288.28
2022-10-28T15:31:15.963Z,101309.00
2022-10-28T15:36:24.975Z,101316.78
2022-10-28T15:41:29.060Z,101313.66
2022-10-28T15:46:31.969Z,101315.25
2022-10-28T15:51:33.251Z,101326.09
2022-10-28T15:56:52.679Z,101332.00
2022-10-28T16:01:56.268Z,101343.66
2022-10-28T16:06:58.023Z,101345.91
2022-10-28T16:12:02.415Z,101351.72
2022-10-28T16:22:13.944Z,101372.53
2022-10-28T16:27:19.484Z,101365.09
2022-10-28T16:32:25.146Z,101366.03
2022-10-28T16:37:28.319Z,101369.50
2022-10-28T16:42:30.094Z,101367.75
2022-10-28T16:47:31.394Z,101379.94
2022-10-28T16:52:33.637Z,101376.97
2022-10-28T16:57:34.936Z,101372.53
2022-10-28T17:02:36.448Z,101371.34
2022-10-28T17:07:37.865Z,101376.34
2022-10-28T17:12:39.279Z,101389.25
2022-10-28T17:17:40.567Z,101403.25
2022-10-28T17:22:41.886Z,101403.56
2022-10-28T17:27:48.184Z,101421.44
2022-10-28T17:32:50.525Z,101408.53
2022-10-28T17:37:52.144Z,101400.94
2022-10-28T17:42:54.463Z,101407.72
2022-10-28T17:47:55.912Z,101410.78
2022-10-28T17:52:57.705Z,101412.44
2022-10-28T17:57:59.162Z,101426.03
2022-10-28T18:03:00.609Z,101425.44
2022-10-28T18:08:01.936Z,101420.34
2022-10-28T18:13:03.229Z,101427.25
2022-10-28T18:18:04.526Z,101429.22
2022-10-28T18:23:05.823Z,101433.34
2022-10-28T18:28:07.148Z,101429.09
2022-10-28T18:33:08.454Z,101429.94
2022-10-28T18:38:09.755Z,101451.00
2022-10-28T18:43:11.070Z,101452.78
2022-10-28T18:48:12.368Z,101450.13
2022-10-28T18:53:13.682Z,101445.44
2022-10-28T18:58:15.241Z,101460.56
2022-10-28T19:03:20.644Z,101447.19
2022-10-28T19:08:21.967Z,101456.53
2022-10-28T19:13:23.694Z,101450.34
2022-10-28T19:18:25.058Z,101453.38
2022-10-28T19:23:26.356Z,101458.75
2022-10-28T19:28:27.841Z,101453.41
2022-10-28T19:33:29.821Z,101452.31
2022-10-28T19:38:36.020Z,101456.22
2022-10-28T19:43:37.401Z,101468.47
2022-10-28T19:48:40.036Z,101470.63
2022-10-28T19:53:41.942Z,101487.53
2022-10-28T19:58:43.246Z,101491.44
2022-10-28T20:03:49.016Z,101496.88
2022-10-28T20:08:50.817Z,101508.06
2022-10-28T20:14:03.198Z,101514.38
2022-10-28T20:19:04.905Z,101519.31
2022-10-28T20:24:06.942Z,101512.56
2022-10-28T20:29:09.716Z,101524.25
2022-10-28T20:34:11.190Z,101522.25
2022-10-28T20:39:12.505Z,101529.03
2022-10-28T20:44:14.102Z,101530.78
2022-10-28T20:49:15.493Z,101542.28
2022-10-28T20:54:16.881Z,101558.47
2022-10-28T20:59:18.235Z,101550.28
2022-10-28T21:04:19.688Z,101559.41
2022-10-28T21:09:21.001Z,101579.94
2022-10-28T21:14:22.301Z,101583.66
2022-10-28T21:19:23.734Z,101597.09
2022-10-28T21:24:25.064Z,101588.63
2022-10-28T21:29:26.400Z,101600.38
2022-10-28T21:34:27.705Z,101607.47
2022-10-28T21:39:29.029Z,101610.31
2022-10-28T21:44:30.335Z,101605.06
2022-10-28T21:49:31.669Z,101591.09
2022-10-28T21:54:33.960Z,101574.84
2022-10-28T21:59:35.274Z,101578.09
2022-10-28T22:04:36.752Z,101581.53
2022-10-28T22:09:38.037Z,101587.44
2022-10-28T22:14:39.354Z,101581.94
2022-10-28T22:19:40.752Z,101577.28
2022-10-28T22:24:42.046Z,101591.00
2022-10-28T22:29:43.366Z,101593.41
2022-10-28T22:34:44.678Z,101594.81
2022-10-28T22:39:45.965Z,101591.75
2022-10-28T22:44:47.241Z,101601.22
2022-10-28T22:49:48.605Z,101605.00
2022-10-28T22:54:49.913Z,101604.34
2022-10-28T22:59:51.208Z,101594.78
2022-10-28T23:04:52.502Z,101600.81
2022-10-28T23:09:53.873Z,101598.91
2022-10-28T23:14:55.845Z,101599.47
2022-10-28T23:19:57.202Z,101593.53
2022-10-28T23:24:58.504Z,101603.31
2022-10-28T23:29:59.902Z,101600.22
2022-10-28T23:35:01.424Z,101612.34
2022-10-28T23:40:02.908Z,101613.09
2022-10-28T23:45:04.567Z,101610.41
2022-10-28T23:50:05.996Z,101608.72
2022-10-28T23:55:07.583Z,101613.91
